sensor_id;sensor_type;location;lat;lon;timestamp;P1;durP1;ratioP1;P2;durP2;ratioP2
75016;SDS011;63577;39.766;2.720;2022-10-16T00:00:39;3.30;;;1.20;;
75016;SDS011;63577;39.766;2.720;2022-10-16T00:03:05;5.10;;;1.30;;
75016;SDS011;63577;39.766;2.720;2022-10-16T00:05:30;3.80;;;1.60;;
75016;SDS011;63577;39.766;2.720;2022-10-16T00:07:56;4.60;;;1.60;;
75016;SDS011;63577;39.766;2.720;2022-10-16T00:10:21;5.30;;;1.60;;
75016;SDS011;63577;39.766;2.720;2022-10-16T00:12:47;7.30;;;2.20;;
75016;SDS011;63577;39.766;2.720;2022-10-16T00:15:12;5.20;;;1.70;;
75016;SDS011;63577;39.766;2.720;2022-10-16T00:17:38;4.80;;;1.60;;
75016;SDS011;63577;39.766;2.720;2022-10-16T00:20:03;3.80;;;1.50;;
75016;SDS011;63577;39.766;2.720;2022-10-16T00:22:29;3.20;;;1.40;;
75016;SDS011;63577;39.766;2.720;2022-10-16T00:24:54;4.30;;;1.30;;
75016;SDS011;63577;39.766;2.720;2022-10-16T00:27:20;4.50;;;1.60;;
75016;SDS011;63577;39.766;2.720;2022-10-16T00:29:49;3.90;;;1.30;;
75016;SDS011;63577;39.766;2.720;2022-10-16T00:32:14;4.50;;;1.40;;
75016;SDS011;63577;39.766;2.720;2022-10-16T00:34:39;3.10;;;1.20;;
75016;SDS011;63577;39.766;2.720;2022-10-16T00:37:05;3.80;;;1.40;;
75016;SDS011;63577;39.766;2.720;2022-10-16T00:39:31;3.20;;;1.10;;
75016;SDS011;63577;39.766;2.720;2022-10-16T00:41:56;5.20;;;1.60;;
75016;SDS011;63577;39.766;2.720;2022-10-16T00:44:44;3.50;;;1.30;;
75016;SDS011;63577;39.766;2.720;2022-10-16T00:47:12;5.20;;;1.30;;
75016;SDS011;63577;39.766;2.720;2022-10-16T00:49:38;3.30;;;1.10;;
75016;SDS011;63577;39.766;2.720;2022-10-16T00:52:04;3.10;;;1.40;;
75016;SDS011;63577;39.766;2.720;2022-10-16T00:54:31;3.80;;;1.50;;
75016;SDS011;63577;39.766;2.720;2022-10-16T00:56:58;3.60;;;1.30;;
75016;SDS011;63577;39.766;2.720;2022-10-16T00:59:26;4.90;;;1.50;;
75016;SDS011;63577;39.766;2.720;2022-10-16T01:01:52;3.50;;;1.30;;
75016;SDS011;63577;39.766;2.720;2022-10-16T01:04:18;3.70;;;1.30;;
75016;SDS011;63577;39.766;2.720;2022-10-16T01:09:22;4.00;;;1.40;;
75016;SDS011;63577;39.766;2.720;2022-10-16T01:11:52;5.40;;;1.50;;
75016;SDS011;63577;39.766;2.720;2022-10-16T01:17:12;4.60;;;1.70;;
75016;SDS011;63577;39.766;2.720;2022-10-16T01:22:13;4.10;;;1.40;;
75016;SDS011;63577;39.766;2.720;2022-10-16T01:24:40;3.80;;;1.20;;
75016;SDS011;63577;39.766;2.720;2022-10-16T01:32:11;4.00;;;1.20;;
75016;SDS011;63577;39.766;2.720;2022-10-16T01:34:53;3.30;;;1.20;;
75016;SDS011;63577;39.766;2.720;2022-10-16T01:37:22;3.60;;;1.10;;
75016;SDS011;63577;39.766;2.720;2022-10-16T01:39:48;4.80;;;1.30;;
75016;SDS011;63577;39.766;2.720;2022-10-16T01:42:19;5.40;;;1.20;;
75016;SDS011;63577;39.766;2.720;2022-10-16T01:44:45;3.80;;;1.20;;
75016;SDS011;63577;39.766;2.720;2022-10-16T01:47:12;4.50;;;1.30;;
75016;SDS011;63577;39.766;2.720;2022-10-16T01:49:38;4.90;;;1.30;;
75016;SDS011;63577;39.766;2.720;2022-10-16T01:52:09;5.20;;;1.20;;
75016;SDS011;63577;39.766;2.720;2022-10-16T01:54:36;4.50;;;1.00;;
75016;SDS011;63577;39.766;2.720;2022-10-16T01:57:03;6.30;;;1.10;;
75016;SDS011;63577;39.766;2.720;2022-10-16T01:59:31;7.40;;;1.40;;
75016;SDS011;63577;39.766;2.720;2022-10-16T02:01:58;4.70;;;1.30;;
75016;SDS011;63577;39.766;2.720;2022-10-16T02:06:51;4.90;;;1.30;;
75016;SDS011;63577;39.766;2.720;2022-10-16T02:09:17;6.10;;;1.50;;
75016;SDS011;63577;39.766;2.720;2022-10-16T02:11:43;4.50;;;1.30;;
75016;SDS011;63577;39.766;2.720;2022-10-16T02:14:09;5.20;;;1.50;;
75016;SDS011;63577;39.766;2.720;2022-10-16T02:18:59;5.60;;;1.40;;
75016;SDS011;63577;39.766;2.720;2022-10-16T02:21:26;6.20;;;1.30;;
75016;SDS011;63577;39.766;2.720;2022-10-16T02:23:55;4.00;;;1.60;;
75016;SDS011;63577;39.766;2.720;2022-10-16T02:27:09;5.10;;;1.30;;
75016;SDS011;63577;39.766;2.720;2022-10-16T02:29:12;4.90;;;1.60;;
75016;SDS011;63577;39.766;2.720;2022-10-16T02:31:41;6.30;;;1.30;;
75016;SDS011;63577;39.766;2.720;2022-10-16T02:34:08;5.10;;;1.60;;
75016;SDS011;63577;39.766;2.720;2022-10-16T02:36:36;4.20;;;1.00;;
75016;SDS011;63577;39.766;2.720;2022-10-16T02:39:02;5.30;;;1.20;;
75016;SDS011;63577;39.766;2.720;2022-10-16T02:41:30;6.80;;;1.30;;
75016;SDS011;63577;39.766;2.720;2022-10-16T02:43:55;7.00;;;1.40;;
75016;SDS011;63577;39.766;2.720;2022-10-16T02:46:21;6.90;;;1.90;;
75016;SDS011;63577;39.766;2.720;2022-10-16T02:48:46;5.50;;;1.60;;
75016;SDS011;63577;39.766;2.720;2022-10-16T02:51:12;5.30;;;1.60;;
75016;SDS011;63577;39.766;2.720;2022-10-16T02:53:37;4.00;;;1.20;;
75016;SDS011;63577;39.766;2.720;2022-10-16T02:56:03;4.60;;;1.20;;
75016;SDS011;63577;39.766;2.720;2022-10-16T02:58:28;5.90;;;1.40;;
75016;SDS011;63577;39.766;2.720;2022-10-16T03:00:54;6.60;;;1.20;;
75016;SDS011;63577;39.766;2.720;2022-10-16T03:03:19;5.70;;;1.50;;
75016;SDS011;63577;39.766;2.720;2022-10-16T03:05:45;4.20;;;1.30;;
75016;SDS011;63577;39.766;2.720;2022-10-16T03:08:13;3.80;;;1.20;;
75016;SDS011;63577;39.766;2.720;2022-10-16T03:10:39;6.90;;;1.30;;
75016;SDS011;63577;39.766;2.720;2022-10-16T03:13:04;4.40;;;1.30;;
75016;SDS011;63577;39.766;2.720;2022-10-16T03:15:29;4.90;;;1.20;;
75016;SDS011;63577;39.766;2.720;2022-10-16T03:17:57;5.50;;;1.40;;
75016;SDS011;63577;39.766;2.720;2022-10-16T03:20:22;4.70;;;1.20;;
75016;SDS011;63577;39.766;2.720;2022-10-16T03:22:47;4.20;;;1.00;;
75016;SDS011;63577;39.766;2.720;2022-10-16T03:25:13;5.00;;;1.00;;
75016;SDS011;63577;39.766;2.720;2022-10-16T03:27:38;4.70;;;1.10;;
75016;SDS011;63577;39.766;2.720;2022-10-16T03:30:03;4.10;;;1.20;;
75016;SDS011;63577;39.766;2.720;2022-10-16T03:32:29;3.90;;;1.30;;
75016;SDS011;63577;39.766;2.720;2022-10-16T03:34:54;4.30;;;1.20;;
75016;SDS011;63577;39.766;2.720;2022-10-16T03:37:21;4.10;;;1.10;;
75016;SDS011;63577;39.766;2.720;2022-10-16T03:39:46;6.50;;;1.20;;
75016;SDS011;63577;39.766;2.720;2022-10-16T03:42:12;3.50;;;1.20;;
75016;SDS011;63577;39.766;2.720;2022-10-16T03:44:37;3.90;;;1.30;;
75016;SDS011;63577;39.766;2.720;2022-10-16T03:47:03;4.90;;;1.90;;
75016;SDS011;63577;39.766;2.720;2022-10-16T03:49:28;3.50;;;1.30;;
75016;SDS011;63577;39.766;2.720;2022-10-16T03:51:53;4.80;;;0.90;;
75016;SDS011;63577;39.766;2.720;2022-10-16T03:54:19;4.30;;;1.00;;
75016;SDS011;63577;39.766;2.720;2022-10-16T03:56:44;4.10;;;1.30;;
75016;SDS011;63577;39.766;2.720;2022-10-16T03:59:09;4.80;;;1.30;;
75016;SDS011;63577;39.766;2.720;2022-10-16T04:01:35;3.90;;;1.10;;
75016;SDS011;63577;39.766;2.720;2022-10-16T04:04:00;4.10;;;1.30;;
75016;SDS011;63577;39.766;2.720;2022-10-16T04:06:25;4.10;;;1.10;;
75016;SDS011;63577;39.766;2.720;2022-10-16T04:08:51;3.60;;;1.10;;
75016;SDS011;63577;39.766;2.720;2022-10-16T04:11:16;4.60;;;1.40;;
75016;SDS011;63577;39.766;2.720;2022-10-16T04:13:41;4.20;;;1.50;;
75016;SDS011;63577;39.766;2.720;2022-10-16T04:16:07;4.60;;;1.50;;
75016;SDS011;63577;39.766;2.720;2022-10-16T04:18:32;4.70;;;1.30;;
75016;SDS011;63577;39.766;2.720;2022-10-16T04:21:04;5.20;;;1.40;;
75016;SDS011;63577;39.766;2.720;2022-10-16T04:23:29;5.20;;;1.40;;
75016;SDS011;63577;39.766;2.720;2022-10-16T04:25:55;5.30;;;1.50;;
75016;SDS011;63577;39.766;2.720;2022-10-16T04:28:20;5.40;;;1.70;;
75016;SDS011;63577;39.766;2.720;2022-10-16T04:30:46;6.50;;;1.60;;
75016;SDS011;63577;39.766;2.720;2022-10-16T04:33:11;4.30;;;1.60;;
75016;SDS011;63577;39.766;2.720;2022-10-16T04:35:37;4.70;;;1.40;;
75016;SDS011;63577;39.766;2.720;2022-10-16T04:38:03;6.70;;;1.70;;
75016;SDS011;63577;39.766;2.720;2022-10-16T04:40:28;7.70;;;1.80;;
75016;SDS011;63577;39.766;2.720;2022-10-16T04:42:53;4.90;;;1.60;;
75016;SDS011;63577;39.766;2.720;2022-10-16T04:45:19;5.80;;;1.70;;
75016;SDS011;63577;39.766;2.720;2022-10-16T04:47:44;6.00;;;1.40;;
75016;SDS011;63577;39.766;2.720;2022-10-16T04:50:09;5.20;;;1.40;;
75016;SDS011;63577;39.766;2.720;2022-10-16T04:52:35;6.70;;;1.90;;
75016;SDS011;63577;39.766;2.720;2022-10-16T04:55:01;4.10;;;1.20;;
75016;SDS011;63577;39.766;2.720;2022-10-16T04:57:28;5.00;;;1.40;;
75016;SDS011;63577;39.766;2.720;2022-10-16T04:59:54;3.50;;;1.20;;
75016;SDS011;63577;39.766;2.720;2022-10-16T05:02:19;4.90;;;1.40;;
75016;SDS011;63577;39.766;2.720;2022-10-16T05:04:44;5.90;;;1.60;;
75016;SDS011;63577;39.766;2.720;2022-10-16T05:07:10;4.20;;;1.40;;
75016;SDS011;63577;39.766;2.720;2022-10-16T05:09:35;4.40;;;1.40;;
75016;SDS011;63577;39.766;2.720;2022-10-16T05:12:00;4.80;;;1.40;;
75016;SDS011;63577;39.766;2.720;2022-10-16T05:14:26;4.60;;;1.60;;
75016;SDS011;63577;39.766;2.720;2022-10-16T05:16:51;5.80;;;1.80;;
75016;SDS011;63577;39.766;2.720;2022-10-16T05:19:16;7.70;;;1.60;;
75016;SDS011;63577;39.766;2.720;2022-10-16T05:21:42;6.80;;;1.40;;
75016;SDS011;63577;39.766;2.720;2022-10-16T05:24:07;5.10;;;1.30;;
75016;SDS011;63577;39.766;2.720;2022-10-16T05:26:34;5.80;;;1.70;;
75016;SDS011;63577;39.766;2.720;2022-10-16T05:28:59;5.80;;;1.60;;
75016;SDS011;63577;39.766;2.720;2022-10-16T05:31:25;6.90;;;1.60;;
75016;SDS011;63577;39.766;2.720;2022-10-16T05:33:51;8.60;;;1.40;;
75016;SDS011;63577;39.766;2.720;2022-10-16T05:36:16;4.90;;;1.60;;
75016;SDS011;63577;39.766;2.720;2022-10-16T05:38:43;7.30;;;1.70;;
75016;SDS011;63577;39.766;2.720;2022-10-16T05:41:09;4.60;;;1.40;;
75016;SDS011;63577;39.766;2.720;2022-10-16T05:43:34;5.30;;;1.80;;
75016;SDS011;63577;39.766;2.720;2022-10-16T05:46:02;5.90;;;1.70;;
75016;SDS011;63577;39.766;2.720;2022-10-16T05:48:28;6.60;;;1.30;;
75016;SDS011;63577;39.766;2.720;2022-10-16T05:51:04;7.80;;;1.40;;
75016;SDS011;63577;39.766;2.720;2022-10-16T05:53:30;7.90;;;2.00;;
75016;SDS011;63577;39.766;2.720;2022-10-16T05:55:56;5.10;;;1.40;;
75016;SDS011;63577;39.766;2.720;2022-10-16T05:58:22;5.50;;;1.60;;
75016;SDS011;63577;39.766;2.720;2022-10-16T06:03:42;7.00;;;1.40;;
75016;SDS011;63577;39.766;2.720;2022-10-16T06:06:09;8.10;;;1.60;;
75016;SDS011;63577;39.766;2.720;2022-10-16T06:08:35;5.30;;;1.40;;
75016;SDS011;63577;39.766;2.720;2022-10-16T06:11:05;5.40;;;1.50;;
75016;SDS011;63577;39.766;2.720;2022-10-16T06:13:30;6.90;;;1.40;;
75016;SDS011;63577;39.766;2.720;2022-10-16T06:15:57;6.00;;;1.20;;
75016;SDS011;63577;39.766;2.720;2022-10-16T06:18:22;6.70;;;1.50;;
75016;SDS011;63577;39.766;2.720;2022-10-16T06:20:48;6.80;;;1.70;;
75016;SDS011;63577;39.766;2.720;2022-10-16T06:23:13;7.00;;;1.50;;
75016;SDS011;63577;39.766;2.720;2022-10-16T06:25:39;5.00;;;1.40;;
75016;SDS011;63577;39.766;2.720;2022-10-16T06:28:04;5.10;;;1.50;;
75016;SDS011;63577;39.766;2.720;2022-10-16T06:30:29;7.00;;;1.80;;
75016;SDS011;63577;39.766;2.720;2022-10-16T06:32:55;6.40;;;1.80;;
75016;SDS011;63577;39.766;2.720;2022-10-16T06:35:20;7.00;;;1.60;;
75016;SDS011;63577;39.766;2.720;2022-10-16T06:37:45;7.90;;;1.70;;
75016;SDS011;63577;39.766;2.720;2022-10-16T06:40:11;7.10;;;1.60;;
75016;SDS011;63577;39.766;2.720;2022-10-16T06:42:36;7.80;;;1.70;;
75016;SDS011;63577;39.766;2.720;2022-10-16T06:45:01;9.10;;;2.10;;
75016;SDS011;63577;39.766;2.720;2022-10-16T06:47:27;7.60;;;1.80;;
75016;SDS011;63577;39.766;2.720;2022-10-16T06:49:52;9.50;;;1.90;;
75016;SDS011;63577;39.766;2.720;2022-10-16T06:52:17;6.60;;;1.70;;
75016;SDS011;63577;39.766;2.720;2022-10-16T06:54:43;6.60;;;1.70;;
75016;SDS011;63577;39.766;2.720;2022-10-16T06:57:08;6.60;;;1.80;;
75016;SDS011;63577;39.766;2.720;2022-10-16T06:59:33;5.50;;;1.60;;
75016;SDS011;63577;39.766;2.720;2022-10-16T07:01:59;5.70;;;1.50;;
75016;SDS011;63577;39.766;2.720;2022-10-16T07:04:24;9.20;;;1.90;;
75016;SDS011;63577;39.766;2.720;2022-10-16T07:06:49;8.90;;;2.00;;
75016;SDS011;63577;39.766;2.720;2022-10-16T07:09:16;7.10;;;1.70;;
75016;SDS011;63577;39.766;2.720;2022-10-16T07:11:42;7.30;;;1.70;;
75016;SDS011;63577;39.766;2.720;2022-10-16T07:14:15;7.20;;;1.70;;
75016;SDS011;63577;39.766;2.720;2022-10-16T07:16:41;6.90;;;1.70;;
75016;SDS011;63577;39.766;2.720;2022-10-16T07:19:06;6.50;;;1.90;;
75016;SDS011;63577;39.766;2.720;2022-10-16T07:21:33;7.60;;;1.80;;
75016;SDS011;63577;39.766;2.720;2022-10-16T07:26:28;10.50;;;1.70;;
75016;SDS011;63577;39.766;2.720;2022-10-16T07:28:53;8.40;;;1.70;;
75016;SDS011;63577;39.766;2.720;2022-10-16T07:31:19;10.30;;;1.70;;
75016;SDS011;63577;39.766;2.720;2022-10-16T07:33:45;6.90;;;1.90;;
75016;SDS011;63577;39.766;2.720;2022-10-16T07:36:13;6.90;;;1.80;;
75016;SDS011;63577;39.766;2.720;2022-10-16T07:38:38;6.40;;;1.50;;
75016;SDS011;63577;39.766;2.720;2022-10-16T07:41:05;6.90;;;1.60;;
75016;SDS011;63577;39.766;2.720;2022-10-16T07:43:31;8.70;;;1.70;;
75016;SDS011;63577;39.766;2.720;2022-10-16T07:45:56;7.60;;;1.70;;
75016;SDS011;63577;39.766;2.720;2022-10-16T07:48:22;6.50;;;1.50;;
75016;SDS011;63577;39.766;2.720;2022-10-16T07:50:48;6.90;;;1.70;;
75016;SDS011;63577;39.766;2.720;2022-10-16T07:53:14;7.20;;;1.70;;
75016;SDS011;63577;39.766;2.720;2022-10-16T07:55:39;6.80;;;1.80;;
75016;SDS011;63577;39.766;2.720;2022-10-16T07:58:05;9.30;;;1.60;;
75016;SDS011;63577;39.766;2.720;2022-10-16T08:00:30;9.30;;;1.90;;
75016;SDS011;63577;39.766;2.720;2022-10-16T08:02:56;10.50;;;2.30;;
75016;SDS011;63577;39.766;2.720;2022-10-16T08:05:25;7.60;;;1.80;;
75016;SDS011;63577;39.766;2.720;2022-10-16T08:07:50;7.40;;;1.60;;
75016;SDS011;63577;39.766;2.720;2022-10-16T08:10:17;6.60;;;1.80;;
75016;SDS011;63577;39.766;2.720;2022-10-16T08:12:42;9.30;;;1.70;;
75016;SDS011;63577;39.766;2.720;2022-10-16T08:15:08;6.70;;;1.50;;
75016;SDS011;63577;39.766;2.720;2022-10-16T08:17:34;7.20;;;1.90;;
75016;SDS011;63577;39.766;2.720;2022-10-16T08:19:59;10.10;;;2.00;;
75016;SDS011;63577;39.766;2.720;2022-10-16T08:22:24;7.60;;;1.50;;
75016;SDS011;63577;39.766;2.720;2022-10-16T08:24:50;6.40;;;1.80;;
75016;SDS011;63577;39.766;2.720;2022-10-16T08:27:15;10.40;;;2.10;;
75016;SDS011;63577;39.766;2.720;2022-10-16T08:29:40;8.90;;;1.70;;
75016;SDS011;63577;39.766;2.720;2022-10-16T08:32:06;8.40;;;1.60;;
75016;SDS011;63577;39.766;2.720;2022-10-16T08:34:31;11.50;;;1.90;;
75016;SDS011;63577;39.766;2.720;2022-10-16T08:36:56;8.90;;;1.90;;
75016;SDS011;63577;39.766;2.720;2022-10-16T08:39:22;9.90;;;3.80;;
75016;SDS011;63577;39.766;2.720;2022-10-16T08:50:11;9.50;;;2.00;;
75016;SDS011;63577;39.766;2.720;2022-10-16T08:52:38;11.90;;;1.90;;
75016;SDS011;63577;39.766;2.720;2022-10-16T08:55:04;9.40;;;1.80;;
75016;SDS011;63577;39.766;2.720;2022-10-16T08:57:30;9.00;;;1.70;;
75016;SDS011;63577;39.766;2.720;2022-10-16T08:59:59;6.70;;;1.70;;
75016;SDS011;63577;39.766;2.720;2022-10-16T09:02:38;7.50;;;1.90;;
75016;SDS011;63577;39.766;2.720;2022-10-16T09:05:19;13.80;;;3.10;;
75016;SDS011;63577;39.766;2.720;2022-10-16T09:10:47;10.30;;;3.20;;
75016;SDS011;63577;39.766;2.720;2022-10-16T09:13:20;8.20;;;2.40;;
75016;SDS011;63577;39.766;2.720;2022-10-16T09:16:33;9.90;;;3.20;;
75016;SDS011;63577;39.766;2.720;2022-10-16T09:18:41;12.60;;;4.70;;
75016;SDS011;63577;39.766;2.720;2022-10-16T09:21:25;9.80;;;2.90;;
75016;SDS011;63577;39.766;2.720;2022-10-16T09:23:51;11.90;;;3.80;;
75016;SDS011;63577;39.766;2.720;2022-10-16T09:26:17;8.50;;;3.50;;
75016;SDS011;63577;39.766;2.720;2022-10-16T09:28:44;9.60;;;4.00;;
75016;SDS011;63577;39.766;2.720;2022-10-16T09:31:20;12.60;;;4.60;;
75016;SDS011;63577;39.766;2.720;2022-10-16T09:33:47;8.90;;;3.20;;
75016;SDS011;63577;39.766;2.720;2022-10-16T09:36:14;11.30;;;4.10;;
75016;SDS011;63577;39.766;2.720;2022-10-16T09:38:40;13.10;;;3.60;;
75016;SDS011;63577;39.766;2.720;2022-10-16T09:41:23;11.10;;;3.50;;
75016;SDS011;63577;39.766;2.720;2022-10-16T09:43:54;7.40;;;3.60;;
75016;SDS011;63577;39.766;2.720;2022-10-16T09:46:29;7.50;;;3.10;;
75016;SDS011;63577;39.766;2.720;2022-10-16T09:48:57;9.60;;;2.70;;
75016;SDS011;63577;39.766;2.720;2022-10-16T09:51:33;10.30;;;3.20;;
75016;SDS011;63577;39.766;2.720;2022-10-16T09:54:21;11.20;;;3.60;;
75016;SDS011;63577;39.766;2.720;2022-10-16T09:56:46;10.80;;;3.30;;
75016;SDS011;63577;39.766;2.720;2022-10-16T09:59:19;9.90;;;3.40;;
75016;SDS011;63577;39.766;2.720;2022-10-16T10:01:54;9.40;;;2.80;;
75016;SDS011;63577;39.766;2.720;2022-10-16T10:04:21;9.10;;;2.90;;
75016;SDS011;63577;39.766;2.720;2022-10-16T10:06:53;8.90;;;3.20;;
75016;SDS011;63577;39.766;2.720;2022-10-16T10:09:21;9.20;;;3.60;;
75016;SDS011;63577;39.766;2.720;2022-10-16T10:11:54;9.00;;;3.70;;
75016;SDS011;63577;39.766;2.720;2022-10-16T10:16:45;10.90;;;3.60;;
75016;SDS011;63577;39.766;2.720;2022-10-16T10:19:14;9.20;;;3.80;;
75016;SDS011;63577;39.766;2.720;2022-10-16T10:24:09;8.70;;;2.40;;
75016;SDS011;63577;39.766;2.720;2022-10-16T10:26:34;8.40;;;2.60;;
75016;SDS011;63577;39.766;2.720;2022-10-16T10:29:22;7.50;;;2.60;;
75016;SDS011;63577;39.766;2.720;2022-10-16T10:31:55;5.60;;;2.40;;
75016;SDS011;63577;39.766;2.720;2022-10-16T10:37:03;7.70;;;2.20;;
75016;SDS011;63577;39.766;2.720;2022-10-16T10:39:35;6.80;;;2.90;;
75016;SDS011;63577;39.766;2.720;2022-10-16T10:50:02;8.70;;;2.30;;
75016;SDS011;63577;39.766;2.720;2022-10-16T10:57:33;7.40;;;2.30;;
75016;SDS011;63577;39.766;2.720;2022-10-16T11:02:37;6.60;;;1.90;;
75016;SDS011;63577;39.766;2.720;2022-10-16T11:07:50;6.90;;;2.00;;
75016;SDS011;63577;39.766;2.720;2022-10-16T11:10:21;5.90;;;1.90;;
75016;SDS011;63577;39.766;2.720;2022-10-16T11:12:49;6.60;;;1.90;;
75016;SDS011;63577;39.766;2.720;2022-10-16T11:15:36;5.30;;;2.00;;
75016;SDS011;63577;39.766;2.720;2022-10-16T11:18:18;7.30;;;2.10;;
75016;SDS011;63577;39.766;2.720;2022-10-16T11:23:33;5.80;;;1.90;;
75016;SDS011;63577;39.766;2.720;2022-10-16T11:25:58;8.50;;;1.60;;
75016;SDS011;63577;39.766;2.720;2022-10-16T11:28:27;7.50;;;1.90;;
75016;SDS011;63577;39.766;2.720;2022-10-16T11:31:57;7.10;;;1.80;;
75016;SDS011;63577;39.766;2.720;2022-10-16T11:33:51;7.50;;;1.80;;
75016;SDS011;63577;39.766;2.720;2022-10-16T11:39:00;8.30;;;2.00;;
75016;SDS011;63577;39.766;2.720;2022-10-16T11:41:29;5.30;;;1.80;;
75016;SDS011;63577;39.766;2.720;2022-10-16T11:46:29;6.30;;;1.70;;
75016;SDS011;63577;39.766;2.720;2022-10-16T11:49:00;7.10;;;1.60;;
75016;SDS011;63577;39.766;2.720;2022-10-16T11:51:36;6.80;;;1.70;;
75016;SDS011;63577;39.766;2.720;2022-10-16T11:56:36;5.20;;;1.80;;
75016;SDS011;63577;39.766;2.720;2022-10-16T11:59:05;7.10;;;1.70;;
75016;SDS011;63577;39.766;2.720;2022-10-16T12:01:38;4.40;;;1.80;;
75016;SDS011;63577;39.766;2.720;2022-10-16T12:04:14;7.30;;;1.60;;
75016;SDS011;63577;39.766;2.720;2022-10-16T12:09:10;5.90;;;1.70;;
75016;SDS011;63577;39.766;2.720;2022-10-16T12:11:39;5.90;;;1.80;;
75016;SDS011;63577;39.766;2.720;2022-10-16T12:16:52;7.20;;;2.00;;
75016;SDS011;63577;39.766;2.720;2022-10-16T12:19:19;6.20;;;2.10;;
75016;SDS011;63577;39.766;2.720;2022-10-16T12:21:45;5.20;;;1.70;;
75016;SDS011;63577;39.766;2.720;2022-10-16T12:26:54;5.70;;;1.60;;
75016;SDS011;63577;39.766;2.720;2022-10-16T12:31:48;4.80;;;1.60;;
75016;SDS011;63577;39.766;2.720;2022-10-16T12:35:01;4.80;;;1.80;;
75016;SDS011;63577;39.766;2.720;2022-10-16T12:39:35;5.00;;;1.70;;
75016;SDS011;63577;39.766;2.720;2022-10-16T12:42:05;6.00;;;2.20;;
75016;SDS011;63577;39.766;2.720;2022-10-16T12:44:43;5.40;;;1.70;;
75016;SDS011;63577;39.766;2.720;2022-10-16T12:47:18;4.60;;;1.70;;
75016;SDS011;63577;39.766;2.720;2022-10-16T12:49:48;7.00;;;1.60;;
75016;SDS011;63577;39.766;2.720;2022-10-16T12:52:56;6.30;;;1.80;;
75016;SDS011;63577;39.766;2.720;2022-10-16T12:55:03;5.20;;;1.70;;
75016;SDS011;63577;39.766;2.720;2022-10-16T13:00:28;5.40;;;1.60;;
75016;SDS011;63577;39.766;2.720;2022-10-16T13:28:59;5.60;;;1.70;;
75016;SDS011;63577;39.766;2.720;2022-10-16T13:31:26;7.50;;;2.30;;
75016;SDS011;63577;39.766;2.720;2022-10-16T13:33:52;9.20;;;2.60;;
75016;SDS011;63577;39.766;2.720;2022-10-16T13:36:23;6.60;;;2.00;;
75016;SDS011;63577;39.766;2.720;2022-10-16T13:38:48;7.00;;;2.40;;
75016;SDS011;63577;39.766;2.720;2022-10-16T13:41:25;8.00;;;2.50;;
75016;SDS011;63577;39.766;2.720;2022-10-16T13:43:50;6.00;;;2.30;;
75016;SDS011;63577;39.766;2.720;2022-10-16T13:46:20;6.50;;;2.10;;
75016;SDS011;63577;39.766;2.720;2022-10-16T13:48:56;7.50;;;2.20;;
75016;SDS011;63577;39.766;2.720;2022-10-16T13:53:47;8.40;;;2.00;;
75016;SDS011;63577;39.766;2.720;2022-10-16T13:56:14;6.30;;;2.10;;
75016;SDS011;63577;39.766;2.720;2022-10-16T13:58:40;5.70;;;2.00;;
75016;SDS011;63577;39.766;2.720;2022-10-16T14:01:15;6.90;;;2.00;;
75016;SDS011;63577;39.766;2.720;2022-10-16T14:03:41;8.60;;;2.50;;
75016;SDS011;63577;39.766;2.720;2022-10-16T14:06:11;5.60;;;2.40;;
75016;SDS011;63577;39.766;2.720;2022-10-16T14:08:40;8.40;;;2.00;;
75016;SDS011;63577;39.766;2.720;2022-10-16T14:11:07;5.20;;;1.80;;
75016;SDS011;63577;39.766;2.720;2022-10-16T14:13:37;4.80;;;1.90;;
75016;SDS011;63577;39.766;2.720;2022-10-16T14:16:25;6.10;;;1.80;;
75016;SDS011;63577;39.766;2.720;2022-10-16T14:18:56;6.20;;;2.00;;
75016;SDS011;63577;39.766;2.720;2022-10-16T14:21:22;7.50;;;2.00;;
75016;SDS011;63577;39.766;2.720;2022-10-16T14:23:47;5.60;;;2.10;;
75016;SDS011;63577;39.766;2.720;2022-10-16T14:26:14;9.10;;;2.30;;
75016;SDS011;63577;39.766;2.720;2022-10-16T14:28:40;7.30;;;2.00;;
75016;SDS011;63577;39.766;2.720;2022-10-16T14:33:44;7.60;;;2.10;;
75016;SDS011;63577;39.766;2.720;2022-10-16T14:38:35;5.70;;;2.00;;
75016;SDS011;63577;39.766;2.720;2022-10-16T14:41:00;7.10;;;2.70;;
75016;SDS011;63577;39.766;2.720;2022-10-16T14:43:36;8.70;;;2.40;;
75016;SDS011;63577;39.766;2.720;2022-10-16T14:46:03;7.70;;;2.10;;
75016;SDS011;63577;39.766;2.720;2022-10-16T14:48:30;8.00;;;2.90;;
75016;SDS011;63577;39.766;2.720;2022-10-16T14:50:56;7.30;;;3.30;;
75016;SDS011;63577;39.766;2.720;2022-10-16T14:53:21;8.50;;;3.10;;
75016;SDS011;63577;39.766;2.720;2022-10-16T14:55:47;5.80;;;2.60;;
75016;SDS011;63577;39.766;2.720;2022-10-16T14:58:14;5.70;;;2.30;;
75016;SDS011;63577;39.766;2.720;2022-10-16T15:00:40;9.00;;;2.80;;
75016;SDS011;63577;39.766;2.720;2022-10-16T15:03:06;7.00;;;2.30;;
75016;SDS011;63577;39.766;2.720;2022-10-16T15:05:31;6.70;;;2.40;;
75016;SDS011;63577;39.766;2.720;2022-10-16T15:07:57;6.00;;;2.20;;
75016;SDS011;63577;39.766;2.720;2022-10-16T15:10:23;6.00;;;2.30;;
75016;SDS011;63577;39.766;2.720;2022-10-16T15:12:49;7.80;;;2.30;;
75016;SDS011;63577;39.766;2.720;2022-10-16T15:15:23;8.00;;;2.50;;
75016;SDS011;63577;39.766;2.720;2022-10-16T15:17:50;8.80;;;2.60;;
75016;SDS011;63577;39.766;2.720;2022-10-16T15:20:21;6.60;;;3.10;;
75016;SDS011;63577;39.766;2.720;2022-10-16T15:22:46;7.40;;;2.40;;
75016;SDS011;63577;39.766;2.720;2022-10-16T15:27:52;6.60;;;2.30;;
75016;SDS011;63577;39.766;2.720;2022-10-16T15:30:18;6.80;;;2.40;;
75016;SDS011;63577;39.766;2.720;2022-10-16T15:32:43;6.70;;;2.50;;
75016;SDS011;63577;39.766;2.720;2022-10-16T15:35:09;6.40;;;2.30;;
75016;SDS011;63577;39.766;2.720;2022-10-16T15:37:34;5.70;;;1.90;;
75016;SDS011;63577;39.766;2.720;2022-10-16T15:39:59;7.10;;;2.20;;
75016;SDS011;63577;39.766;2.720;2022-10-16T15:42:25;8.20;;;2.50;;
75016;SDS011;63577;39.766;2.720;2022-10-16T15:44:50;5.10;;;2.00;;
75016;SDS011;63577;39.766;2.720;2022-10-16T15:47:15;6.70;;;2.40;;
75016;SDS011;63577;39.766;2.720;2022-10-16T15:49:41;6.60;;;2.20;;
75016;SDS011;63577;39.766;2.720;2022-10-16T15:52:06;6.70;;;2.30;;
75016;SDS011;63577;39.766;2.720;2022-10-16T15:54:31;8.30;;;2.40;;
75016;SDS011;63577;39.766;2.720;2022-10-16T15:56:57;8.40;;;2.40;;
75016;SDS011;63577;39.766;2.720;2022-10-16T15:59:22;6.60;;;2.40;;
75016;SDS011;63577;39.766;2.720;2022-10-16T16:01:47;7.50;;;2.20;;
75016;SDS011;63577;39.766;2.720;2022-10-16T16:04:13;8.20;;;2.50;;
75016;SDS011;63577;39.766;2.720;2022-10-16T16:06:38;8.00;;;2.40;;
75016;SDS011;63577;39.766;2.720;2022-10-16T16:09:13;6.90;;;2.70;;
75016;SDS011;63577;39.766;2.720;2022-10-16T16:11:39;6.40;;;2.80;;
75016;SDS011;63577;39.766;2.720;2022-10-16T16:14:05;8.50;;;2.70;;
75016;SDS011;63577;39.766;2.720;2022-10-16T16:16:30;7.70;;;3.00;;
75016;SDS011;63577;39.766;2.720;2022-10-16T16:18:58;8.00;;;2.40;;
75016;SDS011;63577;39.766;2.720;2022-10-16T16:21:23;8.80;;;2.80;;
75016;SDS011;63577;39.766;2.720;2022-10-16T16:23:49;8.60;;;2.90;;
75016;SDS011;63577;39.766;2.720;2022-10-16T16:26:18;5.90;;;2.40;;
75016;SDS011;63577;39.766;2.720;2022-10-16T16:28:49;7.80;;;2.80;;
75016;SDS011;63577;39.766;2.720;2022-10-16T16:31:14;10.00;;;3.40;;
75016;SDS011;63577;39.766;2.720;2022-10-16T16:33:39;6.20;;;2.80;;
75016;SDS011;63577;39.766;2.720;2022-10-16T16:36:05;9.50;;;3.10;;
75016;SDS011;63577;39.766;2.720;2022-10-16T16:38:32;7.20;;;3.20;;
75016;SDS011;63577;39.766;2.720;2022-10-16T16:40:57;7.10;;;2.40;;
75016;SDS011;63577;39.766;2.720;2022-10-16T16:43:26;6.90;;;2.70;;
75016;SDS011;63577;39.766;2.720;2022-10-16T16:45:52;7.10;;;2.50;;
75016;SDS011;63577;39.766;2.720;2022-10-16T16:48:17;8.10;;;2.60;;
75016;SDS011;63577;39.766;2.720;2022-10-16T16:50:43;7.50;;;2.40;;
75016;SDS011;63577;39.766;2.720;2022-10-16T16:53:08;6.20;;;2.60;;